Brighton Beach, South Carolina
Current Conditions -  °F | °C
As of 5:01 PM on Sunday 21 Dec 2014 (Local Time) from KHXD Reporting Station
Light Rain Light Rain  
Wind Chill: 10°   Ceiling: 2400
Heat Index: 10°   Visibility: 3mi
Dew Point:   Wind: 10mph
Humidity: 82%   Direction: 20°NNE
Pressure: 30.14"   Gusts: 16mph
Location:  32.2133°N, 80.9033°W
Report Text: KHXD 212201Z 02009G14KT 3SM -RA BKN024 OVC032 10/07 A3014
Loading
Personal Weather Stations






























Interactive Weather Map New forecast layout! Learn more

10-Day Weather Forecast

Advertisements
Track Severe Weather on mobile